Home > Products > Valid Products > TAF

000
FTUS45 KBOI 311720
TAFTWF
TAF
KTWF 311720Z 3118/0118 31008KT P6SM FEW250
     FM010200 VRB05KT P6SM FEW250
     FM010600 19008KT P6SM FEW250
     FM011600 24006KT P6SM FEW250=



000
FTUS45 KBOI 311720
TAFBNO
TAF
KBNO 311720Z 3118/0118 VRB06KT P6SM SCT250=



000
FTUS45 KBOI 311720
TAFBOI
TAF
KBOI 311720Z 3118/0118 32008KT P6SM SCT250
     FM010300 VRB06KT P6SM SCT250=



000
FTUS45 KBOI 311720
TAFJER
TAF
KJER 311720Z 3118/0118 VRB06KT P6SM FEW250=



000
FTUS45 KBOI 311720
TAFBKE
TAF
KBKE 311720Z 3118/0118 VRB06KT P6SM SCT250=



000
FTUS45 KBOI 311720
TAFMYL
TAF
KMYL 311720Z 3118/0118 VRB03KT P6SM SCT250
     FM312000 20009KT P6SM SCT250
     FM010300 VRB03KT P6SM SCT250=



000
FTUS45 KBOI 311130
TAFBNO
TAF
KBNO 311130Z 3112/0112 VRB05KT P6SM SCT200=



000
FTUS45 KBOI 311130
TAFMYL
TAF
KMYL 311130Z 3112/0112 VRB03KT P6SM SCT080
     FM311900 20008KT P6SM SCT200
     FM010300 VRB03KT P6SM SKC=



000
FTUS45 KBOI 311130
TAFTWF
TAF
KTWF 311130Z 3112/0112 19012KT P6SM SKC
     FM311900 32008KT P6SM SKC
     FM010400 16007KT P6SM SKC=



000
FTUS45 KBOI 311130
TAFBKE
TAF
KBKE 311130Z 3112/0112 VRB05KT P6SM SCT200=



000
FTUS45 KBOI 311130
TAFJER
TAF
KJER 311130Z 3112/0112 VRB05KT P6SM SKC=



000
FTUS45 KBOI 311130
TAFBOI
TAF
KBOI 311130Z 3112/0112 VRB05KT P6SM SCT200=



000
FTUS45 KBOI 311130
TAFBOI
TAF
KBOI 311130Z 3112/0112 VRB05KT P6SM SCT200=



000
FTUS45 KBOI 311130
TAFJER
TAF
KJER 311130Z 3112/0112 VRB05KT P6SM SKC=



000
FTUS45 KBOI 311130
TAFMYL
TAF
KMYL 311130Z 3112/0112 VRB03KT P6SM SCT080
     FM311900 20008KT P6SM SCT200
     FM010300 VRB03KT P6SM SKC=



000
FTUS45 KBOI 311130
TAFTWF
TAF
KTWF 311130Z 3112/0112 19012KT P6SM SKC
     FM311900 32008KT P6SM SKC
     FM010400 16007KT P6SM SKC=



000
FTUS45 KBOI 311130
TAFBKE
TAF
KBKE 311130Z 3112/0112 VRB05KT P6SM SCT200=



000
FTUS45 KBOI 311130
TAFBNO
TAF
KBNO 311130Z 3112/0112 VRB05KT P6SM SCT200=



000
FTUS45 KBOI 310520
TAFJER
TAF
KJER 310520Z 3106/0106 VRB05KT P6SM SKC=



000
FTUS45 KBOI 310520
TAFMYL
TAF
KMYL 310520Z 3106/0106 VRB03KT P6SM SCT080
     FM311900 20009KT P6SM SCT080=



000
FTUS45 KBOI 310520
TAFBNO
TAF
KBNO 310520Z 3106/0106 26007KT P6SM SCT200
     FM311700 22009KT P6SM SKC=



000
FTUS45 KBOI 310520
TAFTWF
TAF
KTWF 310520Z 3106/0106 21008KT P6SM SKC
     FM311900 34008KT P6SM SKC=



000
FTUS45 KBOI 310520
TAFBKE
TAF
KBKE 310520Z 3106/0106 VRB03KT P6SM SCT200
     FM311800 15008KT P6SM SKC
     FM312200 34009KT P6SM FEW100=



000
FTUS45 KBOI 310520
TAFBOI
TAF
KBOI 310520Z 3106/0106 VRB05KT P6SM FEW200
     FM311900 34008KT P6SM SKC=



000
FTUS45 KBOI 310520
TAFJER
TAF
KJER 310520Z 3106/0106 VRB05KT P6SM SKC=



000
FTUS45 KBOI 310520
TAFBKE
TAF
KBKE 310520Z 3106/0106 VRB03KT P6SM SCT200
     FM311800 15008KT P6SM SKC
     FM312200 34009KT P6SM FEW100=



000
FTUS45 KBOI 310520
TAFBOI
TAF
KBOI 310520Z 3106/0106 VRB05KT P6SM FEW200
     FM311900 34008KT P6SM SKC=



000
FTUS45 KBOI 310520
TAFMYL
TAF
KMYL 310520Z 3106/0106 VRB03KT P6SM SCT080
     FM311900 20009KT P6SM SCT080=



000
FTUS45 KBOI 310520
TAFMYL
TAF
KMYL 310520Z 3106/0106 VRB03KT P6SM SCT080
     FM311900 20009KT P6SM SCT080=



000
FTUS45 KBOI 310520
TAFJER
TAF
KJER 310520Z 3106/0106 VRB05KT P6SM SKC=



000
FTUS45 KBOI 310520
TAFBNO
TAF
KBNO 310520Z 3106/0106 26007KT P6SM SCT200
     FM311700 22009KT P6SM SKC=



000
FTUS45 KBOI 310520
TAFTWF
TAF
KTWF 310520Z 3106/0106 21008KT P6SM SKC
     FM311900 34008KT P6SM SKC=



000
FTUS45 KBOI 310520
TAFBKE
TAF
KBKE 310520Z 3106/0106 VRB03KT P6SM SCT200
     FM311800 15008KT P6SM SKC
     FM312200 34009KT P6SM FEW100=



000
FTUS45 KBOI 310520
TAFBOI
TAF
KBOI 310520Z 3106/0106 VRB05KT P6SM FEW200
     FM311900 34008KT P6SM SKC=



000
FTUS45 KBOI 310520
TAFBKE
TAF
KBKE 310520Z 3106/0106 VRB03KT P6SM SCT200
     FM311800 15008KT P6SM SKC
     FM312200 34009KT P6SM FEW100=



000
FTUS45 KBOI 310520
TAFTWF
TAF
KTWF 310520Z 3106/0106 21008KT P6SM SKC
     FM311900 34008KT P6SM SKC=



000
FTUS45 KBOI 310520
TAFBOI
TAF
KBOI 310520Z 3106/0106 VRB05KT P6SM FEW200
     FM311900 34008KT P6SM SKC=



000
FTUS45 KBOI 310520
TAFTWF
TAF
KTWF 310520Z 3106/0106 21008KT P6SM SKC
     FM311900 34008KT P6SM SKC=



000
FTUS45 KBOI 310520
TAFJER
TAF
KJER 310520Z 3106/0106 VRB05KT P6SM SKC=



000
FTUS45 KBOI 310520
TAFMYL
TAF
KMYL 310520Z 3106/0106 VRB03KT P6SM SCT080
     FM311900 20009KT P6SM SCT080=



000
FTUS45 KBOI 310520
TAFBNO
TAF
KBNO 310520Z 3106/0106 26007KT P6SM SCT200
     FM311700 22009KT P6SM SKC=



000
FTUS45 KBOI 310520
TAFBNO
TAF
KBNO 310520Z 3106/0106 26007KT P6SM SCT200
     FM311700 22009KT P6SM SKC=



000
FTUS45 KBOI 310134 AAA
TAFBKE
TAF AMD
KBKE 310134Z 3102/3124 34010KT P6SM SCT090
     FM310300 VRB05KT P6SM SCT100=



000
FTUS45 KBOI 310134 AAA
TAFBKE
TAF AMD
KBKE 310134Z 3102/3124 34010KT P6SM SCT090
     FM310300 VRB05KT P6SM SCT100=



000
FTUS45 KBOI 310132 AAA
TAFBNO
TAF AMD
KBNO 310132Z 3102/3124 26014KT P6SM SCT090
     FM310300 26006KT P6SM SKC=



000
FTUS45 KBOI 310131 AAA
TAFMYL
TAF AMD
KMYL 310131Z 3102/3124 VRB05KT P6SM SCT080
     FM311900 20009KT P6SM SCT080=



000
FTUS45 KBOI 310131 AAA
TAFMYL
TAF AMD
KMYL 310131Z 3102/3124 VRB05KT P6SM SCT080
     FM311900 20009KT P6SM SCT080=



000
FTUS45 KBOI 310131 AAA
TAFMYL
TAF AMD
KMYL 310131Z 3102/3124 VRB05KT P6SM SCT080
     FM311900 20009KT P6SM SCT080=



000
FTUS45 KBOI 310131 AAA
TAFMYL
TAF AMD
KMYL 310131Z 3102/3124 VRB05KT P6SM SCT080
     FM311900 20009KT P6SM SCT080=



000
FTUS45 KBOI 302342
TAFBOI
TAF
KBOI 302342Z 3100/3124 34010KT P6SM FEW200
     FM310300 VRB05KT P6SM SKC
     FM312000 34008KT P6SM SKC=



000
FTUS45 KBOI 302342
TAFBNO
TAF
KBNO 302342Z 3100/3124 24017G27KT P6SM BKN090
     FM310200 26006KT P6SM FEW100=



000
FTUS45 KBOI 302342
TAFBKE
TAF
KBKE 302342Z 3100/3124 34014G21KT P6SM VCSH SCT080 BKN100
     FM310300 VRB05KT P6SM SCT100=



000
FTUS45 KBOI 302342
TAFJER
TAF
KJER 302342Z 3100/3124 26008KT P6SM SKC
     FM310200 VRB05KT P6SM SKC=



000
FTUS45 KBOI 302342
TAFTWF
TAF
KTWF 302342Z 3100/3124 34010KT P6SM SKC
     FM310200 21010KT P6SM SKC
     FM311900 35008KT P6SM SKC=



000
FTUS45 KBOI 302342
TAFMYL
TAF
KMYL 302342Z 3100/3124 20013G22KT P6SM VCSH SCT060 BKN080
      TEMPO 3100/3102 27010G20KT
     FM310300 VRB05KT P6SM SCT100
     FM311900 20009KT P6SM SCT080=



000
FTUS45 KBOI 302342
TAFJER
TAF
KJER 302342Z 3100/3124 26008KT P6SM SKC
     FM310200 VRB05KT P6SM SKC=



000
FTUS45 KBOI 302342
TAFBKE
TAF
KBKE 302342Z 3100/3124 34014G21KT P6SM VCSH SCT080 BKN100
     FM310300 VRB05KT P6SM SCT100=



000
FTUS45 KBOI 302342
TAFBNO
TAF
KBNO 302342Z 3100/3124 24017G27KT P6SM BKN090
     FM310200 26006KT P6SM FEW100=



000
FTUS45 KBOI 302342
TAFBOI
TAF
KBOI 302342Z 3100/3124 34010KT P6SM FEW200
     FM310300 VRB05KT P6SM SKC
     FM312000 34008KT P6SM SKC=



000
FTUS45 KBOI 302342
TAFMYL
TAF
KMYL 302342Z 3100/3124 20013G22KT P6SM VCSH SCT060 BKN080
      TEMPO 3100/3102 27010G20KT
     FM310300 VRB05KT P6SM SCT100
     FM311900 20009KT P6SM SCT080=



000
FTUS45 KBOI 302342
TAFTWF
TAF
KTWF 302342Z 3100/3124 34010KT P6SM SKC
     FM310200 21010KT P6SM SKC
     FM311900 35008KT P6SM SKC=



000
FTUS45 KBOI 302342
TAFBKE
TAF
KBKE 302342Z 3100/3124 34014G21KT P6SM VCSH SCT080 BKN100
     FM310300 VRB05KT P6SM SCT100=



000
FTUS45 KBOI 302342
TAFBKE
TAF
KBKE 302342Z 3100/3124 34014G21KT P6SM VCSH SCT080 BKN100
     FM310300 VRB05KT P6SM SCT100=



000
FTUS45 KBOI 302342
TAFBOI
TAF
KBOI 302342Z 3100/3124 34010KT P6SM FEW200
     FM310300 VRB05KT P6SM SKC
     FM312000 34008KT P6SM SKC=



000
FTUS45 KBOI 302342
TAFBOI
TAF
KBOI 302342Z 3100/3124 34010KT P6SM FEW200
     FM310300 VRB05KT P6SM SKC
     FM312000 34008KT P6SM SKC=



000
FTUS45 KBOI 302342
TAFJER
TAF
KJER 302342Z 3100/3124 26008KT P6SM SKC
     FM310200 VRB05KT P6SM SKC=



000
FTUS45 KBOI 302342
TAFBNO
TAF
KBNO 302342Z 3100/3124 24017G27KT P6SM BKN090
     FM310200 26006KT P6SM FEW100=



000
FTUS45 KBOI 302342
TAFMYL
TAF
KMYL 302342Z 3100/3124 20013G22KT P6SM VCSH SCT060 BKN080
      TEMPO 3100/3102 27010G20KT
     FM310300 VRB05KT P6SM SCT100
     FM311900 20009KT P6SM SCT080=



000
FTUS45 KBOI 302342
TAFTWF
TAF
KTWF 302342Z 3100/3124 34010KT P6SM SKC
     FM310200 21010KT P6SM SKC
     FM311900 35008KT P6SM SKC=



000
FTUS45 KBOI 302342
TAFJER
TAF
KJER 302342Z 3100/3124 26008KT P6SM SKC
     FM310200 VRB05KT P6SM SKC=



000
FTUS45 KBOI 302342
TAFBNO
TAF
KBNO 302342Z 3100/3124 24017G27KT P6SM BKN090
     FM310200 26006KT P6SM FEW100=



000
FTUS45 KBOI 302342
TAFTWF
TAF
KTWF 302342Z 3100/3124 34010KT P6SM SKC
     FM310200 21010KT P6SM SKC
     FM311900 35008KT P6SM SKC=



000
FTUS45 KBOI 302342
TAFMYL
TAF
KMYL 302342Z 3100/3124 20013G22KT P6SM VCSH SCT060 BKN080
      TEMPO 3100/3102 27010G20KT
     FM310300 VRB05KT P6SM SCT100
     FM311900 20009KT P6SM SCT080=



000
FTUS45 KBOI 302014 AAA
TAFTWF
TAF AMD
KTWF 302014Z 3020/3118 29014G21KT P6SM SCT200
     FM310200 21010KT P6SM FEW200=



000
FTUS45 KBOI 302014 AAA
TAFTWF
TAF AMD
KTWF 302014Z 3020/3118 29014G21KT P6SM SCT200
     FM310200 21010KT P6SM FEW200=



000
FTUS45 KBOI 302014 AAA
TAFTWF
TAF AMD
KTWF 302014Z 3020/3118 29014G21KT P6SM SCT200
     FM310200 21010KT P6SM FEW200=



000
FTUS45 KBOI 301720
TAFJER
TAF
KJER 301720Z 3018/3118 26014G21KT P6SM SCT200
     FM310000 22007KT P6SM FEW200=



000
FTUS45 KBOI 301720
TAFBNO
TAF
KBNO 301720Z 3018/3118 24010KT P6SM BKN150
     FM301900 24012G20KT P6SM FEW100 BKN150
     FM310300 27006KT P6SM FEW100=



000
FTUS45 KBOI 301720
TAFTWF
TAF
KTWF 301720Z 3018/3118 26014G21KT P6SM SCT200
     FM310200 21010KT P6SM FEW200=



000
FTUS45 KBOI 301720
TAFMYL
TAF
KMYL 301720Z 3018/3118 20013G22KT P6SM VCSH FEW060 BKN100
     FM310300 VRB05KT P6SM SCT100=



000
FTUS45 KBOI 301720
TAFBOI
TAF
KBOI 301720Z 3018/3118 31010KT P6SM FEW100 SCT200
      TEMPO 3021/3024 31012G19KT
     FM310300 VRB05KT P6SM FEW200=



000
FTUS45 KBOI 301720
TAFJER
TAF
KJER 301720Z 3018/3118 26014G21KT P6SM SCT200
     FM310000 22007KT P6SM FEW200=



000
FTUS45 KBOI 301720
TAFBKE
TAF
KBKE 301720Z 3018/3118 33010KT P6SM VCSH FEW060 BKN100
     FM310300 VRB06KT P6SM SCT100=



000
FTUS45 KBOI 301133
TAFTWF
TAF
KTWF 301133Z 3012/3112 VRB06KT P6SM SKC
     FM301600 26015G25KT P6SM SCT200
     FM310300 23008KT P6SM BKN250=



000
FTUS45 KBOI 301133
TAFBOI
TAF
KBOI 301133Z 3012/3112 VRB04KT P6SM SKC
     FM301600 31010KT P6SM SCT200
     FM310300 VRB05KT P6SM FEW200=



000
FTUS45 KBOI 301133
TAFMYL
TAF
KMYL 301133Z 3012/3112 VRB05KT P6SM SKC
     FM301700 20012G20KT P6SM VCSH FEW060 BKN100
     FM310300 VRB05KT P6SM SCT120=



000
FTUS45 KBOI 301133
TAFJER
TAF
KJER 301133Z 3012/3112 VRB05KT P6SM SCT200
     FM301700 26014G22KT P6SM SCT200
     FM310600 21006KT P6SM BKN200=



000
FTUS45 KBOI 301133
TAFBKE
TAF
KBKE 301133Z 3012/3112 VRB03KT P6SM SKC
     FM301800 33010KT P6SM VCSH FEW060 BKN100
     FM310500 VRB04KT P6SM SCT120=



000
FTUS45 KBOI 301133
TAFBNO
TAF
KBNO 301133Z 3012/3112 VRB05KT P6SM FEW200
     FM301700 25012G20KT P6SM FEW100 BKN150
     FM310300 27005KT P6SM FEW150=



000
FTUS45 KBOI 301133
TAFBKE
TAF
KBKE 301133Z 3012/3112 VRB03KT P6SM SKC
     FM301800 33010KT P6SM VCSH FEW060 BKN100
     FM310500 VRB04KT P6SM SCT120=



000
FTUS45 KBOI 301133
TAFBOI
TAF
KBOI 301133Z 3012/3112 VRB04KT P6SM SKC
     FM301600 31010KT P6SM SCT200
     FM310300 VRB05KT P6SM FEW200=



000
FTUS45 KBOI 301133
TAFMYL
TAF
KMYL 301133Z 3012/3112 VRB05KT P6SM SKC
     FM301700 20012G20KT P6SM VCSH FEW060 BKN100
     FM310300 VRB05KT P6SM SCT120=



000
FTUS45 KBOI 301133
TAFTWF
TAF
KTWF 301133Z 3012/3112 VRB06KT P6SM SKC
     FM301600 26015G25KT P6SM SCT200
     FM310300 23008KT P6SM BKN250=



000
FTUS45 KBOI 301133
TAFBNO
TAF
KBNO 301133Z 3012/3112 VRB05KT P6SM FEW200
     FM301700 25012G20KT P6SM FEW100 BKN150
     FM310300 27005KT P6SM FEW150=



000
FTUS45 KBOI 301133
TAFJER
TAF
KJER 301133Z 3012/3112 VRB05KT P6SM SCT200
     FM301700 26014G22KT P6SM SCT200
     FM310600 21006KT P6SM BKN200=



000
FTUS45 KBOI 300918 AAA
TAFTWF
TAF AMD
KTWF 300918Z 3009/3106 27012KT P6SM VCSH FEW070 BKN100
     FM301600 26015G25KT P6SM SCT100
     FM310300 23008KT P6SM FEW250=



000
FTUS45 KBOI 300918 AAA
TAFTWF
TAF AMD
KTWF 300918Z 3009/3106 27012KT P6SM VCSH FEW070 BKN100
     FM301600 26015G25KT P6SM SCT100
     FM310300 23008KT P6SM FEW250=



000
FTUS45 KBOI 300918 AAA
TAFTWF
TAF AMD
KTWF 300918Z 3009/3106 27012KT P6SM VCSH FEW070 BKN100
     FM301600 26015G25KT P6SM SCT100
     FM310300 23008KT P6SM FEW250=



000
FTUS45 KBOI 300913 AAB
TAFBOI
TAF AMD
KBOI 300913Z 3009/3106 VRB03KT P6SM SKC
     FM301600 31010KT P6SM SCT200
     FM310300 VRB05KT P6SM FEW200=



000
FTUS45 KBOI 300913 AAB
TAFBOI
TAF AMD
KBOI 300913Z 3009/3106 VRB03KT P6SM SKC
     FM301600 31010KT P6SM SCT200
     FM310300 VRB05KT P6SM FEW200=



000
FTUS45 KBOI 300608 AAA
TAFMYL
TAF AMD
KMYL 300608Z 3006/3106 VRB05KT P6SM VCTS FEW070CB OVC100
     FM300900 VRB05KT P6SM BKN100
     FM301700 20009G15KT P6SM SCT100
     FM302300 26009KT P6SM VCSH SCT070 BKN100
     FM310300 VRB05KT P6SM FEW200=



000
FTUS45 KBOI 300608 AAA
TAFMYL
TAF AMD
KMYL 300608Z 3006/3106 VRB05KT P6SM VCTS FEW070CB OVC100
     FM300900 VRB05KT P6SM BKN100
     FM301700 20009G15KT P6SM SCT100
     FM302300 26009KT P6SM VCSH SCT070 BKN100
     FM310300 VRB05KT P6SM FEW200=



000
FTUS45 KBOI 300608 AAA
TAFMYL
TAF AMD
KMYL 300608Z 3006/3106 VRB05KT P6SM VCTS FEW070CB OVC100
     FM300900 VRB05KT P6SM BKN100
     FM301700 20009G15KT P6SM SCT100
     FM302300 26009KT P6SM VCSH SCT070 BKN100
     FM310300 VRB05KT P6SM FEW200=



000
FTUS45 KBOI 300608 AAA
TAFMYL
TAF AMD
KMYL 300608Z 3006/3106 VRB05KT P6SM VCTS FEW070CB OVC100
     FM300900 VRB05KT P6SM BKN100
     FM301700 20009G15KT P6SM SCT100
     FM302300 26009KT P6SM VCSH SCT070 BKN100
     FM310300 VRB05KT P6SM FEW200=



000
FTUS45 KBOI 300607 AAA
TAFBOI
TAF AMD
KBOI 300607Z 3006/3106 VRB03KT P6SM VCSH FEW060 BKN100
     FM300900 30012KT P6SM SCT080
     FM310300 VRB06KT P6SM FEW200=



000
FTUS45 KBOI 300607 AAA
TAFBOI
TAF AMD
KBOI 300607Z 3006/3106 VRB03KT P6SM VCSH FEW060 BKN100
     FM300900 30012KT P6SM SCT080
     FM310300 VRB06KT P6SM FEW200=



000
FTUS45 KBOI 300607 AAA
TAFBOI
TAF AMD
KBOI 300607Z 3006/3106 VRB03KT P6SM VCSH FEW060 BKN100
     FM300900 30012KT P6SM SCT080
     FM310300 VRB06KT P6SM FEW200=



000
FTUS45 KBOI 300520
TAFMYL
TAF
KMYL 300520Z 3006/3106 20010KT P6SM VCSH BKN070 OVC100
     FM300900 VRB05KT P6SM BKN100
     FM301700 20009G15KT P6SM SCT100
     FM302300 26009KT P6SM VCSH SCT070 BKN100
     FM310300 VRB05KT P6SM FEW200=



000
FTUS45 KBOI 300520
TAFMYL
TAF
KMYL 300520Z 3006/3106 20010KT P6SM VCSH BKN070 OVC100
     FM300900 VRB05KT P6SM BKN100
     FM301700 20009G15KT P6SM SCT100
     FM302300 26009KT P6SM VCSH SCT070 BKN100
     FM310300 VRB05KT P6SM FEW200=



000
FTUS45 KBOI 300520
TAFBNO
TAF
KBNO 300520Z 3006/3106 23007KT P6SM BKN070
     FM301700 25012G20KT P6SM FEW100 FEW200
     FM310300 27006KT P6SM FEW150=



000
FTUS45 KBOI 300520
TAFJER
TAF
KJER 300520Z 3006/3106 23009KT P6SM VCSH BKN100
     FM301500 26012G17KT P6SM SCT100
     FM310300 24008KT P6SM FEW250=



000
FTUS45 KBOI 300520
TAFJER
TAF
KJER 300520Z 3006/3106 23009KT P6SM VCSH BKN100
     FM301500 26012G17KT P6SM SCT100
     FM310300 24008KT P6SM FEW250=



000
FTUS45 KBOI 300520
TAFMYL
TAF
KMYL 300520Z 3006/3106 20010KT P6SM VCSH BKN070 OVC100
     FM300900 VRB05KT P6SM BKN100
     FM301700 20009G15KT P6SM SCT100
     FM302300 26009KT P6SM VCSH SCT070 BKN100
     FM310300 VRB05KT P6SM FEW200=



000
FTUS45 KBOI 300520
TAFTWF
TAF
KTWF 300520Z 3006/3106 22014KT P6SM VCSH FEW070 BKN100
     FM301500 26012G18KT P6SM SCT100
     FM310300 23009KT P6SM FEW250=



000
FTUS45 KBOI 300520
TAFBOI
TAF
KBOI 300520Z 3006/3106 33012KT P6SM VCSH SCT080 BKN150
     FM300900 30012KT P6SM SCT080
     FM310300 VRB06KT P6SM FEW200=



000
FTUS45 KBOI 300520
TAFBKE
TAF
KBKE 300520Z 3006/3106 30010KT P6SM SCT100
     FM300900 VRB06KT P6SM SCT100
     FM301800 31010KT P6SM VCSH FEW080 BKN100
     FM310100 31008KT P6SM FEW250=



000
FTUS45 KBOI 300520
TAFTWF
TAF
KTWF 300520Z 3006/3106 22014KT P6SM VCSH FEW070 BKN100
     FM301500 26012G18KT P6SM SCT100
     FM310300 23009KT P6SM FEW250=



000
FTUS45 KBOI 300520
TAFMYL
TAF
KMYL 300520Z 3006/3106 20010KT P6SM VCSH BKN070 OVC100
     FM300900 VRB05KT P6SM BKN100
     FM301700 20009G15KT P6SM SCT100
     FM302300 26009KT P6SM VCSH SCT070 BKN100
     FM310300 VRB05KT P6SM FEW200=



000
FTUS45 KBOI 300520
TAFBNO
TAF
KBNO 300520Z 3006/3106 23007KT P6SM BKN070
     FM301700 25012G20KT P6SM FEW100 FEW200
     FM310300 27006KT P6SM FEW150=



000
FTUS45 KBOI 300520
TAFBKE
TAF
KBKE 300520Z 3006/3106 30010KT P6SM SCT100
     FM300900 VRB06KT P6SM SCT100
     FM301800 31010KT P6SM VCSH FEW080 BKN100
     FM310100 31008KT P6SM FEW250=



000
FTUS45 KBOI 300520
TAFBOI
TAF
KBOI 300520Z 3006/3106 33012KT P6SM VCSH SCT080 BKN150
     FM300900 30012KT P6SM SCT080
     FM310300 VRB06KT P6SM FEW200=



000
FTUS45 KBOI 300219 AAA
TAFMYL
TAF AMD
KMYL 300219Z 3002/3024 20010KT P6SM -TSRA SCT060CB BKN100
     FM300400 20010KT P6SM VCSH SCT060 BKN100
     FM300900 VRB05KT P6SM BKN100
     FM301600 20009G15KT P6SM SCT100=



000
FTUS45 KBOI 300219 AAA
TAFMYL
TAF AMD
KMYL 300219Z 3002/3024 20010KT P6SM -TSRA SCT060CB BKN100
     FM300400 20010KT P6SM VCSH SCT060 BKN100
     FM300900 VRB05KT P6SM BKN100
     FM301600 20009G15KT P6SM SCT100=



000
FTUS45 KBOI 300044 AAA
TAFJER
TAF AMD
KJER 300044Z 3001/3024 01010KT P6SM -TSRA SCT100CB BKN250
     FM300300 22009KT P6SM VCSH BKN100
     FM301500 26012G17KT P6SM SCT100=



000
FTUS45 KBOI 300044 AAA
TAFJER
TAF AMD
KJER 300044Z 3001/3024 01010KT P6SM -TSRA SCT100CB BKN250
     FM300300 22009KT P6SM VCSH BKN100
     FM301500 26012G17KT P6SM SCT100=



000
FTUS45 KBOI 300040 AAB
TAFBOI
TAF AMD
KBOI 300040Z 3001/3024 01010KT P6SM VCSH BKN080
     FM300300 33012KT P6SM SCT080 BKN150
     FM300900 30010KT P6SM SCT080=



000
FTUS45 KBOI 300040 AAB
TAFBOI
TAF AMD
KBOI 300040Z 3001/3024 01010KT P6SM VCSH BKN080
     FM300300 33012KT P6SM SCT080 BKN150
     FM300900 30010KT P6SM SCT080=



000
FTUS45 KBOI 300038 AAA
TAFTWF
TAF AMD
KTWF 300038Z 3001/3024 30010KT P6SM -TSRA FEW070CB BKN150
     FM300300 20014KT P6SM VCSH FEW070 BKN100
     FM301500 26012G18KT P6SM SCT100=



000
FTUS45 KBOI 300038 AAA
TAFTWF
TAF AMD
KTWF 300038Z 3001/3024 30010KT P6SM -TSRA FEW070CB BKN150
     FM300300 20014KT P6SM VCSH FEW070 BKN100
     FM301500 26012G18KT P6SM SCT100=



000
FTUS45 KBOI 292340
TAFMYL
TAF
KMYL 292340Z 3000/3024 20010KT P6SM VCSH SCT060 BKN100
     FM300900 VRB05KT P6SM BKN100
     FM301600 20009G15KT P6SM SCT100=



000
FTUS45 KBOI 292340
TAFJER
TAF
KJER 292340Z 3000/3024 30010KT P6SM BKN250
     FM300300 22009KT P6SM VCSH BKN100
     FM301500 26012G17KT P6SM SCT100=



000
FTUS45 KBOI 292340
TAFBKE
TAF
KBKE 292340Z 3000/3024 30010G20KT P6SM SCT100
     FM300400 30010KT P6SM SCT100
     FM300900 VRB06KT P6SM SCT100
     FM301800 31010KT P6SM VCSH FEW080 BKN100
     FM302200 31012KT P6SM SCT100=



000
FTUS45 KBOI 292340
TAFTWF
TAF
KTWF 292340Z 3000/3024 30010KT P6SM BKN150
     FM300300 20014KT P6SM VCTS FEW070CB BKN100
     FM300600 20014KT P6SM VCSH BKN100
     FM301500 26012G18KT P6SM SCT100=



000
FTUS45 KBOI 292340
TAFBNO
TAF
KBNO 292340Z 3000/3024 22022G34KT P6SM SCT080 BKN120
     FM300200 24012G20KT P6SM BKN070
     FM300500 23007KT P6SM BKN070
     FM302100 25012G20KT P6SM FEW100 FEW200=



000
FTUS45 KBOI 292340
TAFBOI
TAF
KBOI 292340Z 3000/3024 33012G24KT P6SM VCSH BKN080
     FM300300 33012KT P6SM SCT080 BKN150
     FM300900 30010KT P6SM SCT080=



000
FTUS45 KBOI 292340
TAFBNO
TAF
KBNO 292340Z 3000/3024 22022G34KT P6SM SCT080 BKN120
     FM300200 24012G20KT P6SM BKN070
     FM300500 23007KT P6SM BKN070
     FM302100 25012G20KT P6SM FEW100 FEW200=



000
FTUS45 KBOI 292340
TAFTWF
TAF
KTWF 292340Z 3000/3024 30010KT P6SM BKN150
     FM300300 20014KT P6SM VCTS FEW070CB BKN100
     FM300600 20014KT P6SM VCSH BKN100
     FM301500 26012G18KT P6SM SCT100=



000
FTUS45 KBOI 292340
TAFJER
TAF
KJER 292340Z 3000/3024 30010KT P6SM BKN250
     FM300300 22009KT P6SM VCSH BKN100
     FM301500 26012G17KT P6SM SCT100=



000
FTUS45 KBOI 292340
TAFBKE
TAF
KBKE 292340Z 3000/3024 30010G20KT P6SM SCT100
     FM300400 30010KT P6SM SCT100
     FM300900 VRB06KT P6SM SCT100
     FM301800 31010KT P6SM VCSH FEW080 BKN100
     FM302200 31012KT P6SM SCT100=



000
FTUS45 KBOI 292340
TAFBOI
TAF
KBOI 292340Z 3000/3024 33012G24KT P6SM VCSH BKN080
     FM300300 33012KT P6SM SCT080 BKN150
     FM300900 30010KT P6SM SCT080=



000
FTUS45 KBOI 292340
TAFMYL
TAF
KMYL 292340Z 3000/3024 20010KT P6SM VCSH SCT060 BKN100
     FM300900 VRB05KT P6SM BKN100
     FM301600 20009G15KT P6SM SCT100=



000
FTUS45 KBOI 292205 AAC
TAFBOI
TAF AMD
KBOI 292205Z 2922/3018 31012G24KT P6SM BKN100
     FM300200 33012G24KT P6SM VCSH BKN080
     FM300900 30010KT P6SM SCT080=



000
FTUS45 KBOI 292205 AAC
TAFBOI
TAF AMD
KBOI 292205Z 2922/3018 31012G24KT P6SM BKN100
     FM300200 33012G24KT P6SM VCSH BKN080
     FM300900 30010KT P6SM SCT080=



000
FTUS45 KBOI 292102 AAB
TAFBOI
TAF AMD
KBOI 292102Z 2921/3018 13007KT P6SM OVC150
     FM292200 24012G24KT P6SM BKN100
     FM300200 33012G24KT P6SM VCSH BKN080
     FM300900 30010KT P6SM SCT080=



000
FTUS45 KBOI 292102 AAB
TAFBOI
TAF AMD
KBOI 292102Z 2921/3018 13007KT P6SM OVC150
     FM292200 24012G24KT P6SM BKN100
     FM300200 33012G24KT P6SM VCSH BKN080
     FM300900 30010KT P6SM SCT080=



000
FTUS45 KBOI 292102 AAB
TAFBOI
TAF AMD
KBOI 292102Z 2921/3018 13007KT P6SM OVC150
     FM292200 24012G24KT P6SM BKN100
     FM300200 33012G24KT P6SM VCSH BKN080
     FM300900 30010KT P6SM SCT080=



000
FTUS45 KBOI 292102 AAB
TAFBOI
TAF AMD
KBOI 292102Z 2921/3018 13007KT P6SM OVC150
     FM292200 24012G24KT P6SM BKN100
     FM300200 33012G24KT P6SM VCSH BKN080
     FM300900 30010KT P6SM SCT080=



000
FTUS45 KBOI 291914 AAA
TAFTWF
TAF AMD
KTWF 291914Z 2919/3018 30010KT P6SM BKN150
     FM300300 20014KT P6SM VCSH BKN100
     FM301500 25012G18KT P6SM SCT100=



000
FTUS45 KBOI 291914 AAA
TAFTWF
TAF AMD
KTWF 291914Z 2919/3018 30010KT P6SM BKN150
     FM300300 20014KT P6SM VCSH BKN100
     FM301500 25012G18KT P6SM SCT100=



000
FTUS45 KBOI 291914 AAA
TAFTWF
TAF AMD
KTWF 291914Z 2919/3018 30010KT P6SM BKN150
     FM300300 20014KT P6SM VCSH BKN100
     FM301500 25012G18KT P6SM SCT100=



000
FTUS45 KBOI 291740
TAFBKE
TAF
KBKE 291740Z 2918/3018 21020G30KT P6SM VCSH SCT070 BKN100
     FM292200 30010G20KT P6SM SCT100
     FM300100 30010KT P6SM SCT100=



000
FTUS45 KBOI 291740
TAFBNO
TAF
KBNO 291740Z 2918/3018 22022G34KT P6SM SCT080 BKN120
     FM300100 24012G20KT P6SM BKN070
     FM300700 23007KT P6SM BKN070=



000
FTUS45 KBOI 291740
TAFJER
TAF
KJER 291740Z 2918/3018 24010KT P6SM BKN250
     FM300300 22007KT P6SM VCSH BKN100
     FM301500 25012G17KT P6SM SCT100=



000
FTUS45 KBOI 291740
TAFTWF
TAF
KTWF 291740Z 2918/3018 24012G24KT P6SM BKN150
     FM292100 30010KT P6SM BKN150
     FM300300 20014KT P6SM VCSH BKN100
     FM301500 25012G18KT P6SM SCT100=



000
FTUS45 KBOI 291740
TAFMYL
TAF
KMYL 291740Z 2918/3018 19015G25KT P6SM VCSH SCT060 BKN100
     FM300100 20010KT P6SM VCSH SCT060 BKN100
     FM301500 20009G15KT P6SM SCT100=



000
FTUS45 KBOI 291740
TAFBOI
TAF
KBOI 291740Z 2918/3018 13007KT P6SM OVC150
     FM292100 24012G24KT P6SM BKN100
     FM300200 33012G24KT P6SM VCSH BKN080
     FM300900 VRB06KT P6SM SCT080=



000
FTUS45 KBOI 291740
TAFTWF
TAF
KTWF 291740Z 2918/3018 24012G24KT P6SM BKN150
     FM292100 30010KT P6SM BKN150
     FM300300 20014KT P6SM VCSH BKN100
     FM301500 25012G18KT P6SM SCT100=



000
FTUS45 KBOI 291740
TAFMYL
TAF
KMYL 291740Z 2918/3018 19015G25KT P6SM VCSH SCT060 BKN100
     FM300100 20010KT P6SM VCSH SCT060 BKN100
     FM301500 20009G15KT P6SM SCT100=



000
FTUS45 KBOI 291740
TAFJER
TAF
KJER 291740Z 2918/3018 24010KT P6SM BKN250
     FM300300 22007KT P6SM VCSH BKN100
     FM301500 25012G17KT P6SM SCT100=



000
FTUS45 KBOI 291740
TAFBOI
TAF
KBOI 291740Z 2918/3018 13007KT P6SM OVC150
     FM292100 24012G24KT P6SM BKN100
     FM300200 33012G24KT P6SM VCSH BKN080
     FM300900 VRB06KT P6SM SCT080=



000
FTUS45 KBOI 291740
TAFBNO
TAF
KBNO 291740Z 2918/3018 22022G34KT P6SM SCT080 BKN120
     FM300100 24012G20KT P6SM BKN070
     FM300700 23007KT P6SM BKN070=



000
FTUS45 KBOI 291740
TAFBKE
TAF
KBKE 291740Z 2918/3018 21020G30KT P6SM VCSH SCT070 BKN100
     FM292200 30010G20KT P6SM SCT100
     FM300100 30010KT P6SM SCT100=



000
FTUS45 KBOI 291617 AAA
TAFTWF
TAF AMD
KTWF 291617Z 2916/3012 18015G25KT P6SM BKN250
     FM291800 31010KT P6SM VCSH FEW080 BKN100
     FM300300 20014KT P6SM VCSH BKN100=



000
FTUS45 KBOI 291617 AAA
TAFTWF
TAF AMD
KTWF 291617Z 2916/3012 18015G25KT P6SM BKN250
     FM291800 31010KT P6SM VCSH FEW080 BKN100
     FM300300 20014KT P6SM VCSH BKN100=



000
FTUS45 KBOI 291310 AAA
TAFMYL
TAF AMD
KMYL 291310Z 2913/3012 VRB03KT P6SM VCSH FEW080 BKN120
     FM291800 19012G22KT P6SM VCTS FEW080CB BKN120
     FM300400 VRB05KT P6SM FEW120=



000
FTUS45 KBOI 291310 AAA
TAFMYL
TAF AMD
KMYL 291310Z 2913/3012 VRB03KT P6SM VCSH FEW080 BKN120
     FM291800 19012G22KT P6SM VCTS FEW080CB BKN120
     FM300400 VRB05KT P6SM FEW120=



000
FTUS45 KBOI 291310 AAA
TAFMYL
TAF AMD
KMYL 291310Z 2913/3012 VRB03KT P6SM VCSH FEW080 BKN120
     FM291800 19012G22KT P6SM VCTS FEW080CB BKN120
     FM300400 VRB05KT P6SM FEW120=



000
FTUS45 KBOI 291310 AAA
TAFMYL
TAF AMD
KMYL 291310Z 2913/3012 VRB03KT P6SM VCSH FEW080 BKN120
     FM291800 19012G22KT P6SM VCTS FEW080CB BKN120
     FM300400 VRB05KT P6SM FEW120=



000
FTUS45 KBOI 291301 AAA
TAFBOI
TAF AMD
KBOI 291301Z 2913/3012 13008KT P6SM BKN150
     FM291800 31012G20KT P6SM VCTS FEW080CB BKN120
     FM300200 33010KT P6SM VCSH BKN080=



000
FTUS45 KBOI 291301 AAA
TAFBOI
TAF AMD
KBOI 291301Z 2913/3012 13008KT P6SM BKN150
     FM291800 31012G20KT P6SM VCTS FEW080CB BKN120
     FM300200 33010KT P6SM VCSH BKN080=



000
FTUS45 KBOI 291137
TAFMYL
TAF
KMYL 291137Z 2912/3012 VRB03KT P6SM BKN250
     FM291800 19012G22KT P6SM FEW100 BKN200
     FM300000 20015G25KT P6SM VCTS FEW080CB BKN120
     FM300400 VRB05KT P6SM FEW120=



000
FTUS45 KBOI 291137
TAFMYL
TAF
KMYL 291137Z 2912/3012 VRB03KT P6SM BKN250
     FM291800 19012G22KT P6SM FEW100 BKN200
     FM300000 20015G25KT P6SM VCTS FEW080CB BKN120
     FM300400 VRB05KT P6SM FEW120=



000
FTUS45 KBOI 291137
TAFTWF
TAF
KTWF 291137Z 2912/3012 VRB06KT P6SM BKN250
     FM292000 31010KT P6SM VCTS FEW080CB BKN120
     FM300300 19007KT P6SM VCSH BKN100=



000
FTUS45 KBOI 291137
TAFTWF
TAF
KTWF 291137Z 2912/3012 VRB06KT P6SM BKN250
     FM292000 31010KT P6SM VCTS FEW080CB BKN120
     FM300300 19007KT P6SM VCSH BKN100=



000
FTUS45 KBOI 291137
TAFBKE
TAF
KBKE 291137Z 2912/3012 08007KT P6SM BKN150
     FM292200 21015G22KT P6SM VCSH SCT070 BKN100
     FM300300 30010KT P6SM SCT100=



000
FTUS45 KBOI 291137
TAFBOI
TAF
KBOI 291137Z 2912/3012 14012KT P6SM BKN250
     FM291800 31012G20KT P6SM FEW080 BKN120
     FM300200 33010KT P6SM VCSH BKN080=



000
FTUS45 KBOI 291137
TAFBNO
TAF
KBNO 291137Z 2912/3012 13008KT P6SM BKN250
     FM291700 21020G30KT P6SM SCT080 BKN120
     FM300500 27010KT P6SM SCT120
     FM300700 23007KT P6SM SKC=



000
FTUS45 KBOI 291137
TAFBOI
TAF
KBOI 291137Z 2912/3012 14012KT P6SM BKN250
     FM291800 31012G20KT P6SM FEW080 BKN120
     FM300200 33010KT P6SM VCSH BKN080=



000
FTUS45 KBOI 291137
TAFJER
TAF
KJER 291137Z 2912/3012 05010KT P6SM BKN250
     FM292000 28010KT P6SM VCTS FEW080CB BKN120
     FM300300 20007KT P6SM VCSH BKN100=



000
FTUS45 KBOI 291137
TAFJER
TAF
KJER 291137Z 2912/3012 05010KT P6SM BKN250
     FM292000 28010KT P6SM VCTS FEW080CB BKN120
     FM300300 20007KT P6SM VCSH BKN100=



000
FTUS45 KBOI 291137
TAFBNO
TAF
KBNO 291137Z 2912/3012 13008KT P6SM BKN250
     FM291700 21020G30KT P6SM SCT080 BKN120
     FM300500 27010KT P6SM SCT120
     FM300700 23007KT P6SM SKC=



000
FTUS45 KBOI 291137
TAFBKE
TAF
KBKE 291137Z 2912/3012 08007KT P6SM BKN150
     FM292200 21015G22KT P6SM VCSH SCT070 BKN100
     FM300300 30010KT P6SM SCT100=



000
FTUS45 KBOI 290520
TAFMYL
TAF
KMYL 290520Z 2906/3006 VRB05KT P6SM SCT120 OVC250
     FM291600 19012G21KT P6SM FEW100 SCT200
     FM300000 20015G23KT P6SM VCTS FEW090CB BKN200
     FM300300 23005KT P6SM FEW100 FEW160=



000
FTUS45 KBOI 290520
TAFBKE
TAF
KBKE 290520Z 2906/3006 VRB06KT P6SM BKN150
     FM291800 18010G20KT P6SM VCTS SCT100CB BKN200
     FM292100 24015G22KT P6SM VCSH FEW120 BKN250
     FM300300 30010KT P6SM FEW250=



000
FTUS45 KBOI 290520
TAFTWF
TAF
KTWF 290520Z 2906/3006 15010KT P6SM VCSH BKN250
     FM291500 20010KT P6SM VCTS SCT120CB BKN250
     FM291800 30012KT P6SM FEW120 BKN250
     FM300300 21009KT P6SM VCSH FEW120=



000
FTUS45 KBOI 290520
TAFJER
TAF
KJER 290520Z 2906/3006 08010KT P6SM VCSH SCT120
     FM291500 22010KT P6SM VCSH FEW120 BKN250
     FM291800 28010KT P6SM FEW120 BKN250
     FM300300 12010KT P6SM VCSH FEW120 FEW200=



000
FTUS45 KBOI 290520
TAFJER
TAF
KJER 290520Z 2906/3006 08010KT P6SM VCSH SCT120
     FM291500 22010KT P6SM VCSH FEW120 BKN250
     FM291800 28010KT P6SM FEW120 BKN250
     FM300300 12010KT P6SM VCSH FEW120 FEW200=



000
FTUS45 KBOI 290520
TAFBKE
TAF
KBKE 290520Z 2906/3006 VRB06KT P6SM BKN150
     FM291800 18010G20KT P6SM VCTS SCT100CB BKN200
     FM292100 24015G22KT P6SM VCSH FEW120 BKN250
     FM300300 30010KT P6SM FEW250=



000
FTUS45 KBOI 290520
TAFMYL
TAF
KMYL 290520Z 2906/3006 VRB05KT P6SM SCT120 OVC250
     FM291600 19012G21KT P6SM FEW100 SCT200
     FM300000 20015G23KT P6SM VCTS FEW090CB BKN200
     FM300300 23005KT P6SM FEW100 FEW160=



000
FTUS45 KBOI 290520
TAFTWF
TAF
KTWF 290520Z 2906/3006 15010KT P6SM VCSH BKN250
     FM291500 20010KT P6SM VCTS SCT120CB BKN250
     FM291800 30012KT P6SM FEW120 BKN250
     FM300300 21009KT P6SM VCSH FEW120=



000
FTUS45 KBOI 290520
TAFBNO
TAF
KBNO 290520Z 2906/3006 19010KT P6SM BKN250
     FM291500 21013G22KT P6SM FEW250
     FM291800 23020G30KT P6SM FEW250
     FM300000 23012G20KT P6SM FEW250
     FM300300 25008KT P6SM FEW250=



000
FTUS45 KBOI 290520
TAFMYL
TAF
KMYL 290520Z 2906/3006 VRB05KT P6SM SCT120 OVC250
     FM291600 19012G21KT P6SM FEW100 SCT200
     FM300000 20015G23KT P6SM VCTS FEW090CB BKN200
     FM300300 23005KT P6SM FEW100 FEW160=



000
FTUS45 KBOI 290520
TAFBKE
TAF
KBKE 290520Z 2906/3006 VRB06KT P6SM BKN150
     FM291800 18010G20KT P6SM VCTS SCT100CB BKN200
     FM292100 24015G22KT P6SM VCSH FEW120 BKN250
     FM300300 30010KT P6SM FEW250=



000
FTUS45 KBOI 290520
TAFBNO
TAF
KBNO 290520Z 2906/3006 19010KT P6SM BKN250
     FM291500 21013G22KT P6SM FEW250
     FM291800 23020G30KT P6SM FEW250
     FM300000 23012G20KT P6SM FEW250
     FM300300 25008KT P6SM FEW250=



000
FTUS45 KBOI 290520
TAFMYL
TAF
KMYL 290520Z 2906/3006 VRB05KT P6SM SCT120 OVC250
     FM291600 19012G21KT P6SM FEW100 SCT200
     FM300000 20015G23KT P6SM VCTS FEW090CB BKN200
     FM300300 23005KT P6SM FEW100 FEW160=



000
FTUS45 KBOI 290520
TAFBKE
TAF
KBKE 290520Z 2906/3006 VRB06KT P6SM BKN150
     FM291800 18010G20KT P6SM VCTS SCT100CB BKN200
     FM292100 24015G22KT P6SM VCSH FEW120 BKN250
     FM300300 30010KT P6SM FEW250=



000
FTUS45 KBOI 290520
TAFJER
TAF
KJER 290520Z 2906/3006 08010KT P6SM VCSH SCT120
     FM291500 22010KT P6SM VCSH FEW120 BKN250
     FM291800 28010KT P6SM FEW120 BKN250
     FM300300 12010KT P6SM VCSH FEW120 FEW200=



000
FTUS45 KBOI 290520
TAFBOI
TAF
KBOI 290520Z 2906/3006 14006KT P6SM BKN250
     FM291800 25010KT P6SM FEW120 BKN250
     FM292100 31012G20KT P6SM VCSH FEW120 BKN250
     FM300000 33011KT P6SM VCSH FEW120 BKN200=



000
FTUS45 KBOI 290520
TAFTWF
TAF
KTWF 290520Z 2906/3006 15010KT P6SM VCSH BKN250
     FM291500 20010KT P6SM VCTS SCT120CB BKN250
     FM291800 30012KT P6SM FEW120 BKN250
     FM300300 21009KT P6SM VCSH FEW120=



000
FTUS45 KBOI 290520
TAFTWF
TAF
KTWF 290520Z 2906/3006 15010KT P6SM VCSH BKN250
     FM291500 20010KT P6SM VCTS SCT120CB BKN250
     FM291800 30012KT P6SM FEW120 BKN250
     FM300300 21009KT P6SM VCSH FEW120=



000
FTUS45 KBOI 290520
TAFBNO
TAF
KBNO 290520Z 2906/3006 19010KT P6SM BKN250
     FM291500 21013G22KT P6SM FEW250
     FM291800 23020G30KT P6SM FEW250
     FM300000 23012G20KT P6SM FEW250
     FM300300 25008KT P6SM FEW250=



000
FTUS45 KBOI 290520
TAFJER
TAF
KJER 290520Z 2906/3006 08010KT P6SM VCSH SCT120
     FM291500 22010KT P6SM VCSH FEW120 BKN250
     FM291800 28010KT P6SM FEW120 BKN250
     FM300300 12010KT P6SM VCSH FEW120 FEW200=



000
FTUS45 KBOI 290520
TAFBOI
TAF
KBOI 290520Z 2906/3006 14006KT P6SM BKN250
     FM291800 25010KT P6SM FEW120 BKN250
     FM292100 31012G20KT P6SM VCSH FEW120 BKN250
     FM300000 33011KT P6SM VCSH FEW120 BKN200=



000
FTUS45 KBOI 290520
TAFBNO
TAF
KBNO 290520Z 2906/3006 19010KT P6SM BKN250
     FM291500 21013G22KT P6SM FEW250
     FM291800 23020G30KT P6SM FEW250
     FM300000 23012G20KT P6SM FEW250
     FM300300 25008KT P6SM FEW250=



000
FTUS45 KBOI 290520
TAFBOI
TAF
KBOI 290520Z 2906/3006 14006KT P6SM BKN250
     FM291800 25010KT P6SM FEW120 BKN250
     FM292100 31012G20KT P6SM VCSH FEW120 BKN250
     FM300000 33011KT P6SM VCSH FEW120 BKN200=



000
FTUS45 KBOI 282356
TAFTWF
TAF
KTWF 282356Z 2900/2924 15010KT P6SM VCSH BKN250
     FM291500 20010KT P6SM VCTS SCT120CB BKN250
     FM291800 30012KT P6SM VCSH FEW120 BKN250=



000
FTUS45 KBOI 282356
TAFTWF
TAF
KTWF 282356Z 2900/2924 15010KT P6SM VCSH BKN250
     FM291500 20010KT P6SM VCTS SCT120CB BKN250
     FM291800 30012KT P6SM VCSH FEW120 BKN250=



000
FTUS45 KBOI 282356
TAFMYL
TAF
KMYL 282356Z 2900/2924 VRB05KT P6SM SCT120 OVC250
     FM291600 19012G21KT P6SM FEW100 SCT200
     FM292100 20015G23KT P6SM VCTS FEW090CB BKN200=



000
FTUS45 KBOI 282356
TAFBKE
TAF
KBKE 282356Z 2900/2924 VRB06KT P6SM BKN150
     FM291800 18010G20KT P6SM VCTS SCT100CB BKN200
     FM292100 24015G22KT P6SM VCSH FEW120 BKN250=



000
FTUS45 KBOI 282356
TAFMYL
TAF
KMYL 282356Z 2900/2924 VRB05KT P6SM SCT120 OVC250
     FM291600 19012G21KT P6SM FEW100 SCT200
     FM292100 20015G23KT P6SM VCTS FEW090CB BKN200=



000
FTUS45 KBOI 282356
TAFBOI
TAF
KBOI 282356Z 2900/2924 31010KT P6SM SCT200
     FM290500 14006KT P6SM BKN250
     FM291800 25010KT P6SM FEW120 BKN250
     FM292100 31012G20KT P6SM VCSH FEW120 BKN250=



000
FTUS45 KBOI 282356
TAFJER
TAF
KJER 282356Z 2900/2924 08010KT P6SM VCSH SCT120
     FM291500 22010KT P6SM VCSH FEW120 BKN250
     FM291800 28010KT P6SM VCSH FEW120 BKN250=



000
FTUS45 KBOI 282356
TAFBNO
TAF
KBNO 282356Z 2900/2924 19010KT P6SM BKN250
     FM291500 21013G22KT P6SM FEW250
     FM291800 23020G30KT P6SM FEW250=



000
FTUS45 KBOI 282356
TAFBNO
TAF
KBNO 282356Z 2900/2924 19010KT P6SM BKN250
     FM291500 21013G22KT P6SM FEW250
     FM291800 23020G30KT P6SM FEW250=



000
FTUS45 KBOI 282356
TAFBOI
TAF
KBOI 282356Z 2900/2924 31010KT P6SM SCT200
     FM290500 14006KT P6SM BKN250
     FM291800 25010KT P6SM FEW120 BKN250
     FM292100 31012G20KT P6SM VCSH FEW120 BKN250=



000
FTUS45 KBOI 282356
TAFBKE
TAF
KBKE 282356Z 2900/2924 VRB06KT P6SM BKN150
     FM291800 18010G20KT P6SM VCTS SCT100CB BKN200
     FM292100 24015G22KT P6SM VCSH FEW120 BKN250=



000
FTUS45 KBOI 282356
TAFMYL
TAF
KMYL 282356Z 2900/2924 VRB05KT P6SM SCT120 OVC250
     FM291600 19012G21KT P6SM FEW100 SCT200
     FM292100 20015G23KT P6SM VCTS FEW090CB BKN200=



000
FTUS45 KBOI 282356
TAFTWF
TAF
KTWF 282356Z 2900/2924 15010KT P6SM VCSH BKN250
     FM291500 20010KT P6SM VCTS SCT120CB BKN250
     FM291800 30012KT P6SM VCSH FEW120 BKN250=



000
FTUS45 KBOI 282356
TAFJER
TAF
KJER 282356Z 2900/2924 08010KT P6SM VCSH SCT120
     FM291500 22010KT P6SM VCSH FEW120 BKN250
     FM291800 28010KT P6SM VCSH FEW120 BKN250=



000
FTUS45 KBOI 282356
TAFTWF
TAF
KTWF 282356Z 2900/2924 15010KT P6SM VCSH BKN250
     FM291500 20010KT P6SM VCTS SCT120CB BKN250
     FM291800 30012KT P6SM VCSH FEW120 BKN250=



000
FTUS45 KBOI 282356
TAFMYL
TAF
KMYL 282356Z 2900/2924 VRB05KT P6SM SCT120 OVC250
     FM291600 19012G21KT P6SM FEW100 SCT200
     FM292100 20015G23KT P6SM VCTS FEW090CB BKN200=



    US Dept of Commerce
    National Oceanic and Atmospheric Administration
    National Weather Service
    1325 East West Highway
    Silver Spring, MD 20910
    Page Author: NWS Internet Services Team
Disclaimer
Information Quality
Credits
Glossary
Privacy Policy
Freedom of Information Act (FOIA)
About Us
Career Opportunities